Keansburg, New Jersey
Current Conditions -  °F | °C
As of 12:55 PM on Friday 21 Nov 2014 (Local Time) from KLDJ Reporting Station
Clear Clear  
Wind Chill: 32°   Ceiling: Unl
Heat Index: 40°   Visibility: 10mi
Dew Point: 12°   Wind: 14mph
Humidity: 32%   Direction: 310°NW
Pressure: 30.33"   Gusts: 21mph
Location:  40.44°N, 74.13°W
Report Text: KLDJ 211755Z AUTO 31012G18KT 10SM CLR 04/M11 A3033 RMK AO2 T00431110 10045 21010
Loading
Personal Weather Stations






























Interactive Weather Map New forecast layout! Learn more

10-Day Weather Forecast

Advertisements
Track Severe Weather on mobile